createdAt,value
2022-10-21T00:00:27.966Z,18.25
2022-10-21T00:02:54.689Z,18.24
2022-10-21T00:05:21.243Z,18.24
2022-10-21T00:07:47.754Z,18.25
2022-10-21T00:10:14.459Z,18.24
2022-10-21T00:12:41.128Z,18.27
2022-10-21T00:15:10.683Z,18.25
2022-10-21T00:17:41.769Z,18.23
2022-10-21T00:20:11.147Z,18.23
2022-10-21T00:22:37.956Z,18.26
2022-10-21T00:25:10.990Z,18.26
2022-10-21T00:27:37.844Z,18.25
2022-10-21T00:30:07.302Z,18.24
2022-10-21T00:32:34.460Z,18.22
2022-10-21T00:35:01.184Z,18.22
2022-10-21T00:37:30.353Z,18.21
2022-10-21T00:39:57.308Z,18.22
2022-10-21T00:42:35.184Z,18.22
2022-10-21T00:45:05.583Z,18.22
2022-10-21T00:47:35.931Z,18.20
2022-10-21T00:50:04.448Z,18.17
2022-10-21T00:52:34.284Z,18.16
2022-10-21T00:55:04.806Z,18.15
2022-10-21T00:57:34.589Z,18.14
2022-10-21T01:00:02.356Z,18.15
2022-10-21T01:02:30.085Z,18.14
2022-10-21T01:05:02.332Z,18.14
2022-10-21T01:07:29.061Z,18.12
2022-10-21T01:09:55.526Z,18.11
2022-10-21T01:12:35.291Z,18.10
2022-10-21T01:15:21.569Z,18.10
2022-10-21T01:18:05.053Z,18.12
2022-10-21T01:20:56.356Z,18.12
2022-10-21T01:24:15.556Z,18.10
2022-10-21T01:26:47.763Z,18.10
2022-10-21T01:29:45.397Z,18.05
2022-10-21T01:32:23.829Z,18.02
2022-10-21T01:34:50.509Z,18.02
2022-10-21T01:37:25.525Z,18.01
2022-10-21T01:39:55.716Z,18.02
2022-10-21T01:42:39.656Z,18.04
2022-10-21T01:45:24.751Z,18.04
2022-10-21T01:47:56.005Z,18.04
2022-10-21T01:50:28.593Z,18.01
2022-10-21T01:52:59.821Z,18.00
2022-10-21T01:55:31.527Z,17.96
2022-10-21T01:58:13.756Z,17.92
2022-10-21T02:00:41.756Z,17.91
2022-10-21T02:03:11.765Z,17.91
2022-10-21T02:05:40.262Z,17.91
2022-10-21T02:08:07.393Z,17.87
2022-10-21T02:10:39.163Z,17.87
2022-10-21T02:13:10.061Z,17.87
2022-10-21T02:15:39.200Z,17.86
2022-10-21T02:18:08.410Z,17.85
2022-10-21T02:20:42.288Z,17.84
2022-10-21T02:23:13.086Z,17.82
2022-10-21T02:25:43.798Z,17.80
2022-10-21T02:28:12.182Z,17.77
2022-10-21T02:30:46.922Z,17.76
2022-10-21T02:33:23.560Z,17.74
2022-10-21T02:36:05.140Z,17.71
2022-10-21T02:38:57.155Z,17.67
2022-10-21T02:41:26.757Z,17.68
2022-10-21T02:44:11.750Z,17.64
2022-10-21T02:46:42.444Z,17.66
2022-10-21T02:49:09.363Z,17.66
2022-10-21T02:51:36.117Z,17.65
2022-10-21T02:54:12.605Z,17.66
2022-10-21T02:56:39.143Z,17.65
2022-10-21T02:59:05.704Z,17.64
2022-10-21T03:01:32.209Z,17.60
2022-10-21T03:04:00.675Z,17.58
2022-10-21T03:06:27.203Z,17.58
2022-10-21T03:08:53.845Z,17.58
2022-10-21T03:11:20.378Z,17.58
2022-10-21T03:13:46.837Z,17.58
2022-10-21T03:16:13.542Z,17.59
2022-10-21T03:18:40.075Z,17.59
2022-10-21T03:21:06.655Z,17.58
2022-10-21T03:23:33.697Z,17.58
2022-10-21T03:26:00.162Z,17.56
2022-10-21T03:28:26.628Z,17.55
2022-10-21T03:30:54.305Z,17.53
2022-10-21T03:33:20.761Z,17.51
2022-10-21T03:35:47.597Z,17.50
2022-10-21T03:38:14.075Z,17.49
2022-10-21T03:40:40.529Z,17.49
2022-10-21T03:43:07.049Z,17.48
2022-10-21T03:45:35.581Z,17.45
2022-10-21T03:48:02.166Z,17.41
2022-10-21T03:50:28.659Z,17.38
2022-10-21T03:52:55.366Z,17.34
2022-10-21T03:55:25.176Z,17.29
2022-10-21T03:57:52.884Z,17.25
2022-10-21T04:00:20.114Z,17.22
2022-10-21T04:02:46.906Z,17.23
2022-10-21T04:05:13.582Z,17.21
2022-10-21T04:07:40.114Z,17.18
2022-10-21T04:10:07.520Z,17.15
2022-10-21T04:12:34.049Z,17.12
2022-10-21T04:15:01.553Z,17.09
2022-10-21T04:17:28.112Z,17.08
2022-10-21T04:19:54.661Z,17.07
2022-10-21T04:22:21.169Z,17.05
2022-10-21T04:24:50.507Z,17.03
2022-10-21T04:27:17.013Z,17.02
2022-10-21T04:29:43.535Z,17.01
2022-10-21T04:32:10.301Z,17.00
2022-10-21T04:34:37.506Z,16.99
2022-10-21T04:37:05.193Z,16.99
2022-10-21T04:39:32.114Z,17.00
2022-10-21T04:41:58.770Z,16.99
2022-10-21T04:44:26.333Z,16.98
2022-10-21T04:46:52.940Z,16.94
2022-10-21T04:49:19.494Z,16.91
2022-10-21T04:51:46.010Z,16.88
2022-10-21T04:54:16.658Z,16.86
2022-10-21T04:56:43.154Z,16.82
2022-10-21T04:59:09.791Z,16.79
2022-10-21T05:01:36.634Z,16.78
2022-10-21T05:04:07.730Z,16.78
2022-10-21T05:06:34.250Z,16.80
2022-10-21T05:09:00.830Z,16.83
2022-10-21T05:11:27.433Z,16.85
2022-10-21T05:14:01.397Z,16.89
2022-10-21T05:16:27.942Z,16.91
2022-10-21T05:18:54.401Z,16.91
2022-10-21T05:21:20.896Z,16.92
2022-10-21T05:23:47.632Z,16.93
2022-10-21T05:26:15.791Z,16.95
2022-10-21T05:28:42.258Z,16.97
2022-10-21T05:31:08.721Z,16.98
2022-10-21T05:33:35.199Z,16.97
2022-10-21T05:36:07.799Z,16.98
2022-10-21T05:38:35.178Z,16.97
2022-10-21T05:41:01.787Z,16.96
2022-10-21T05:43:28.266Z,16.96
2022-10-21T05:45:54.825Z,16.98
2022-10-21T05:48:21.433Z,16.99
2022-10-21T05:50:51.554Z,17.01
2022-10-21T05:53:18.052Z,17.02
2022-10-21T05:55:44.528Z,17.02
2022-10-21T05:58:11.047Z,17.01
2022-10-21T06:00:37.616Z,16.99
2022-10-21T06:03:04.090Z,16.99
2022-10-21T06:05:31.722Z,16.98
2022-10-21T06:07:58.192Z,16.97
2022-10-21T06:10:28.246Z,16.95
2022-10-21T06:12:55.923Z,16.92
2022-10-21T06:15:26.830Z,16.91
2022-10-21T06:17:53.348Z,16.86
2022-10-21T06:20:20.045Z,16.81
2022-10-21T06:22:46.505Z,16.78
2022-10-21T06:25:13.103Z,16.79
2022-10-21T06:27:39.867Z,16.78
2022-10-21T06:30:07.195Z,16.75
2022-10-21T06:32:33.683Z,16.73
2022-10-21T06:35:00.328Z,16.73
2022-10-21T06:37:26.878Z,16.74
2022-10-21T06:39:53.349Z,16.75
2022-10-21T06:42:20.121Z,16.78
2022-10-21T06:44:52.731Z,16.80
2022-10-21T06:47:20.950Z,16.81
2022-10-21T06:49:47.501Z,16.81
2022-10-21T06:52:14.094Z,16.79
2022-10-21T06:54:44.726Z,16.79
2022-10-21T06:57:11.207Z,16.83
2022-10-21T06:59:37.680Z,16.84
2022-10-21T07:02:04.307Z,16.85
2022-10-21T07:04:31.454Z,16.86
2022-10-21T07:06:58.194Z,16.89
2022-10-21T07:09:24.753Z,16.91
2022-10-21T07:11:51.297Z,16.94
2022-10-21T07:14:19.010Z,16.97
2022-10-21T07:16:45.525Z,17.01
2022-10-21T07:19:11.972Z,17.04
2022-10-21T07:21:38.552Z,17.07
2022-10-21T07:24:05.690Z,17.11
2022-10-21T07:26:34.204Z,17.14
2022-10-21T07:29:01.024Z,17.16
2022-10-21T07:31:30.893Z,17.18
2022-10-21T07:34:00.991Z,17.22
2022-10-21T07:36:30.157Z,17.25
2022-10-21T07:39:00.730Z,17.29
2022-10-21T07:41:31.239Z,17.33
2022-10-21T07:44:07.132Z,17.36
2022-10-21T07:46:34.730Z,17.41
2022-10-21T07:49:01.242Z,17.44
2022-10-21T07:51:30.168Z,17.47
2022-10-21T07:54:02.508Z,17.51
2022-10-21T07:56:32.371Z,17.56
2022-10-21T07:58:59.833Z,17.60
2022-10-21T08:01:26.636Z,17.65
2022-10-21T08:04:10.158Z,17.69
2022-10-21T08:06:37.154Z,17.74
2022-10-21T08:09:05.081Z,17.78
2022-10-21T08:11:33.480Z,17.81
2022-10-21T08:14:08.162Z,17.85
2022-10-21T08:16:35.160Z,17.89
2022-10-21T08:19:02.845Z,17.94
2022-10-21T08:21:31.152Z,17.99
2022-10-21T08:24:06.882Z,18.03
2022-10-21T08:26:33.477Z,18.09
2022-10-21T08:29:01.631Z,18.13
2022-10-21T08:31:28.101Z,18.16
2022-10-21T08:34:01.095Z,18.20
2022-10-21T08:36:27.630Z,18.24
2022-10-21T08:38:55.037Z,18.27
2022-10-21T08:41:43.759Z,18.33
2022-10-21T08:44:26.184Z,18.38
2022-10-21T08:47:20.687Z,18.41
2022-10-21T08:49:53.101Z,18.46
2022-10-21T08:52:23.598Z,18.46
2022-10-21T08:54:57.617Z,18.50
2022-10-21T08:57:24.524Z,18.56
2022-10-21T08:59:51.624Z,18.57
2022-10-21T09:02:32.351Z,18.59
2022-10-21T09:05:27.869Z,18.59
2022-10-21T09:08:08.760Z,18.61
2022-10-21T09:11:01.261Z,18.61
2022-10-21T09:14:02.046Z,18.63
2022-10-21T09:16:50.571Z,18.66
2022-10-21T09:19:32.369Z,18.68
2022-10-21T09:22:34.987Z,18.69
2022-10-21T09:25:35.029Z,18.72
2022-10-21T09:28:11.957Z,18.77
2022-10-21T09:30:40.667Z,18.79
2022-10-21T09:33:35.284Z,18.79
2022-10-21T09:36:30.037Z,18.83
2022-10-21T09:39:13.071Z,18.88
2022-10-21T09:41:44.201Z,18.92
2022-10-21T09:44:16.743Z,18.96
2022-10-21T09:46:47.957Z,19.00
2022-10-21T09:52:21.065Z,19.13
2022-10-21T09:54:49.073Z,19.17
2022-10-21T09:57:26.161Z,19.24
2022-10-21T10:00:00.300Z,19.30
2022-10-21T10:02:38.888Z,19.37
2022-10-21T10:05:33.461Z,19.46
2022-10-21T10:07:59.918Z,19.52
2022-10-21T10:10:32.572Z,19.58
2022-10-21T10:13:03.216Z,19.64
2022-10-21T10:15:36.763Z,19.70
2022-10-21T10:18:04.507Z,19.76
2022-10-21T10:20:30.994Z,19.80
2022-10-21T10:22:58.266Z,19.83
2022-10-21T10:25:49.443Z,19.85
2022-10-21T10:28:23.563Z,19.91
2022-10-21T10:30:54.743Z,19.94
2022-10-21T10:33:21.646Z,19.97
2022-10-21T10:35:55.206Z,20.03
2022-10-21T10:38:34.006Z,20.07
2022-10-21T10:41:19.067Z,20.11
2022-10-21T10:46:37.152Z,20.25
2022-10-21T10:49:21.311Z,20.31
2022-10-21T10:52:08.944Z,20.38
2022-10-21T10:54:38.698Z,20.43
2022-10-21T10:57:34.363Z,20.49
2022-10-21T11:00:22.141Z,20.57
2022-10-21T11:02:57.128Z,20.65
2022-10-21T11:05:51.822Z,20.73
2022-10-21T11:08:33.350Z,20.83
2022-10-21T11:11:04.431Z,20.91
2022-10-21T11:13:35.490Z,20.98
2022-10-21T11:16:26.995Z,21.04
2022-10-21T11:19:20.943Z,21.11
2022-10-21T11:21:55.697Z,21.16
2022-10-21T11:24:28.143Z,21.22
2022-10-21T11:27:46.874Z,21.31
2022-10-21T11:30:19.696Z,21.45
2022-10-21T11:32:52.012Z,21.58
2022-10-21T11:35:33.499Z,21.74
2022-10-21T11:38:15.160Z,21.92
2022-10-21T11:41:09.168Z,22.11
2022-10-21T11:44:01.406Z,22.30
2022-10-21T11:46:49.186Z,22.45
2022-10-21T11:49:53.647Z,22.58
2022-10-21T11:52:58.011Z,22.73
2022-10-21T11:55:28.159Z,22.80
2022-10-21T11:58:02.260Z,22.81
2022-10-21T12:00:39.242Z,22.85
2022-10-21T12:03:29.242Z,22.91
2022-10-21T12:06:04.721Z,23.04
2022-10-21T12:08:43.090Z,23.18
2022-10-21T12:11:46.418Z,23.33
2022-10-21T12:14:38.144Z,23.50
2022-10-21T12:17:14.071Z,23.61
2022-10-21T12:19:41.542Z,23.68
2022-10-21T12:22:11.097Z,23.74
2022-10-21T12:24:53.466Z,23.79
2022-10-21T12:27:43.974Z,23.82
2022-10-21T12:30:23.474Z,23.82
2022-10-21T12:33:37.503Z,23.81
2022-10-21T12:36:22.600Z,23.80
2022-10-21T12:38:49.156Z,23.84
2022-10-21T12:41:24.518Z,23.88
2022-10-21T12:44:03.719Z,23.89
2022-10-21T12:46:39.113Z,23.91
2022-10-21T12:49:19.275Z,23.87
2022-10-21T12:51:58.562Z,23.82
2022-10-21T12:54:30.956Z,23.74
2022-10-21T12:57:04.299Z,23.69
2022-10-21T12:59:37.024Z,23.67
2022-10-21T13:02:06.685Z,23.63
2022-10-21T13:04:34.372Z,23.60
2022-10-21T13:07:01.644Z,23.56
2022-10-21T13:09:35.723Z,23.54
2022-10-21T13:12:24.055Z,23.55
2022-10-21T13:14:59.085Z,23.53
2022-10-21T13:17:29.777Z,23.50
2022-10-21T13:20:22.183Z,23.48
2022-10-21T13:23:02.013Z,23.51
2022-10-21T13:25:32.919Z,23.55
2022-10-21T13:28:14.693Z,23.56
2022-10-21T13:30:50.210Z,23.59
2022-10-21T13:33:20.511Z,23.60
2022-10-21T13:35:51.490Z,23.61
2022-10-21T13:38:25.356Z,23.61
2022-10-21T13:40:56.461Z,23.60
2022-10-21T13:43:29.281Z,23.59
2022-10-21T13:46:39.180Z,23.57
2022-10-21T13:49:29.301Z,23.60
2022-10-21T13:51:56.150Z,23.58
2022-10-21T13:54:22.921Z,23.54
2022-10-21T13:56:49.481Z,23.51
2022-10-21T13:59:42.302Z,23.47
2022-10-21T14:02:23.010Z,23.46
2022-10-21T14:04:50.618Z,23.43
2022-10-21T14:07:19.323Z,23.39
2022-10-21T14:09:52.632Z,23.41
2022-10-21T14:12:22.099Z,23.43
2022-10-21T14:14:53.995Z,23.49
2022-10-21T14:17:23.629Z,23.59
2022-10-21T14:19:55.811Z,23.66
2022-10-21T14:22:26.595Z,23.76
2022-10-21T14:25:01.836Z,23.87
2022-10-21T14:27:31.581Z,23.93
2022-10-21T14:30:01.226Z,23.97
2022-10-21T14:32:28.010Z,23.99
2022-10-21T14:35:06.996Z,23.99
2022-10-21T14:37:43.237Z,23.99
2022-10-21T14:40:32.629Z,23.97
2022-10-21T14:43:04.443Z,23.95
2022-10-21T14:45:34.582Z,23.89
2022-10-21T14:48:26.364Z,23.82
2022-10-21T14:50:59.735Z,23.76
2022-10-21T14:53:28.519Z,23.70
2022-10-21T14:55:58.910Z,23.64
2022-10-21T14:58:31.590Z,23.57
2022-10-21T15:01:03.212Z,23.50
2022-10-21T15:03:45.714Z,23.39
2022-10-21T15:06:18.511Z,23.34
2022-10-21T15:08:56.995Z,23.30
2022-10-21T15:11:26.266Z,23.26
2022-10-21T15:14:07.025Z,23.23
2022-10-21T15:19:08.689Z,23.20
2022-10-21T15:21:53.830Z,23.17
2022-10-21T15:24:28.730Z,23.10
2022-10-21T15:26:59.492Z,23.08
2022-10-21T15:29:33.857Z,23.02
2022-10-21T15:32:01.094Z,23.00
2022-10-21T15:34:28.404Z,22.95
2022-10-21T15:36:55.221Z,22.89
2022-10-21T15:39:22.013Z,22.86
2022-10-21T15:41:53.617Z,22.83
2022-10-21T15:44:28.103Z,22.82
2022-10-21T15:47:00.397Z,22.80
2022-10-21T15:49:33.787Z,22.73
2022-10-21T15:52:00.552Z,22.69
2022-10-21T15:54:31.603Z,22.65
2022-10-21T15:57:00.526Z,22.61
2022-10-21T15:59:32.474Z,22.57
2022-10-21T16:02:00.470Z,22.51
2022-10-21T16:04:31.249Z,22.45
2022-10-21T16:06:57.723Z,22.38
2022-10-21T16:09:29.023Z,22.30
2022-10-21T16:12:00.175Z,22.24
2022-10-21T16:14:30.800Z,22.17
2022-10-21T16:16:58.661Z,22.09
2022-10-21T16:19:25.642Z,22.03
2022-10-21T16:21:52.203Z,21.99
2022-10-21T16:24:18.856Z,21.95
2022-10-21T16:26:48.089Z,21.91
2022-10-21T16:29:23.539Z,21.83
2022-10-21T16:31:50.581Z,21.77
2022-10-21T16:34:19.657Z,21.71
2022-10-21T16:36:46.391Z,21.67
2022-10-21T16:39:16.712Z,21.59
2022-10-21T16:41:43.243Z,21.52
2022-10-21T16:44:15.078Z,21.45
2022-10-21T16:46:55.431Z,21.38
2022-10-21T16:49:24.867Z,21.32
2022-10-21T16:51:55.194Z,21.23
2022-10-21T16:54:25.609Z,21.16
2022-10-21T16:56:55.043Z,21.13
2022-10-21T16:59:22.647Z,21.10
2022-10-21T17:01:49.141Z,21.08
2022-10-21T17:04:17.887Z,21.03
2022-10-21T17:06:44.400Z,20.98
2022-10-21T17:09:10.976Z,20.92
2022-10-21T17:11:40.095Z,20.87
2022-10-21T17:14:25.467Z,20.79
2022-10-21T17:16:52.006Z,20.77
2022-10-21T17:19:18.537Z,20.71
2022-10-21T17:21:45.530Z,20.68
2022-10-21T17:24:16.395Z,20.61
2022-10-21T17:26:43.491Z,20.55
2022-10-21T17:29:10.818Z,20.50
2022-10-21T17:31:38.625Z,20.46
2022-10-21T17:34:13.167Z,20.43
2022-10-21T17:36:39.681Z,20.42
2022-10-21T17:39:06.174Z,20.40
2022-10-21T17:41:32.697Z,20.37
2022-10-21T17:44:10.323Z,20.31
2022-10-21T17:46:36.900Z,20.29
2022-10-21T17:49:03.537Z,20.27
2022-10-21T17:51:30.281Z,20.24
2022-10-21T17:54:01.302Z,20.20
2022-10-21T17:56:27.814Z,20.13
2022-10-21T17:58:56.127Z,20.05
2022-10-21T18:01:24.502Z,20.01
2022-10-21T18:03:52.082Z,19.97
2022-10-21T18:06:19.183Z,19.95
2022-10-21T18:08:46.017Z,19.93
2022-10-21T18:11:14.920Z,19.91
2022-10-21T18:13:42.518Z,19.90
2022-10-21T18:16:14.246Z,19.89
2022-10-21T18:21:11.869Z,19.86
2022-10-21T18:23:40.653Z,19.84
2022-10-21T18:26:10.802Z,19.81
2022-10-21T18:28:37.442Z,19.79
2022-10-21T18:31:05.065Z,19.79
2022-10-21T18:33:32.064Z,19.79
2022-10-21T18:36:13.469Z,19.77
2022-10-21T18:38:40.376Z,19.77
2022-10-21T18:41:19.491Z,19.75
2022-10-21T18:43:53.043Z,19.73
2022-10-21T18:46:20.595Z,19.73
2022-10-21T18:48:47.593Z,19.75
2022-10-21T18:51:19.022Z,19.73
2022-10-21T18:53:50.072Z,19.72
2022-10-21T18:56:21.770Z,19.70
2022-10-21T18:58:48.740Z,19.68
2022-10-21T19:01:16.001Z,19.67
2022-10-21T19:03:42.897Z,19.66
2022-10-21T19:06:40.518Z,19.64
2022-10-21T19:09:19.685Z,19.63
2022-10-21T19:11:47.134Z,19.61
2022-10-21T19:14:16.027Z,19.58
2022-10-21T19:16:44.629Z,19.57
2022-10-21T19:19:12.145Z,19.57
2022-10-21T19:21:38.752Z,19.56
2022-10-21T19:24:30.754Z,19.52
2022-10-21T19:26:58.809Z,19.50
2022-10-21T19:29:26.181Z,19.48
2022-10-21T19:31:52.715Z,19.45
2022-10-21T19:34:26.164Z,19.45
2022-10-21T19:36:52.681Z,19.45
2022-10-21T19:39:19.515Z,19.43
2022-10-21T19:41:46.798Z,19.41
2022-10-21T19:44:14.468Z,19.41
2022-10-21T19:46:41.013Z,19.38
2022-10-21T19:49:09.138Z,19.36
2022-10-21T19:51:36.727Z,19.35
2022-10-21T19:54:09.186Z,19.34
2022-10-21T19:56:35.861Z,19.32
2022-10-21T19:59:02.951Z,19.30
2022-10-21T20:01:30.278Z,19.30
2022-10-21T20:04:00.274Z,19.27
2022-10-21T20:06:29.878Z,19.24
2022-10-21T20:08:58.674Z,19.20
2022-10-21T20:11:26.474Z,19.15
2022-10-21T20:13:53.365Z,19.09
2022-10-21T20:16:23.270Z,19.04
2022-10-21T20:18:50.499Z,19.02
2022-10-21T20:21:17.794Z,18.98
2022-10-21T20:23:44.362Z,18.95
2022-10-21T20:26:11.235Z,18.93
2022-10-21T20:28:38.176Z,18.88
2022-10-21T20:31:08.016Z,18.82
2022-10-21T20:33:38.438Z,18.76
2022-10-21T20:36:08.979Z,18.70
2022-10-21T20:38:35.525Z,18.66
2022-10-21T20:41:07.128Z,18.62
2022-10-21T20:43:38.587Z,18.57
2022-10-21T20:46:11.722Z,18.52
2022-10-21T20:48:43.427Z,18.49
2022-10-21T20:51:15.656Z,18.46
2022-10-21T20:53:50.416Z,18.40
2022-10-21T20:56:17.811Z,18.35
2022-10-21T20:58:44.279Z,18.30
2022-10-21T21:01:20.747Z,18.27
2022-10-21T21:03:52.308Z,18.24
2022-10-21T21:06:19.548Z,18.22
2022-10-21T21:08:53.334Z,18.19
2022-10-21T21:11:25.156Z,18.18
2022-10-21T21:13:51.645Z,18.17
2022-10-21T21:16:21.131Z,18.13
2022-10-21T21:18:56.470Z,18.12
2022-10-21T21:21:23.910Z,18.12
2022-10-21T21:23:50.678Z,18.14
2022-10-21T21:26:20.930Z,18.10
2022-10-21T21:28:48.547Z,18.09
2022-10-21T21:31:15.126Z,18.08
2022-10-21T21:33:42.901Z,18.07
2022-10-21T21:36:11.586Z,18.07
2022-10-21T21:38:38.320Z,18.05
2022-10-21T21:41:08.082Z,18.05
2022-10-21T21:43:36.470Z,18.03
2022-10-21T21:46:03.572Z,18.01
2022-10-21T21:48:33.634Z,18.01
2022-10-21T21:51:10.226Z,18.01
2022-10-21T21:53:37.513Z,18.00
2022-10-21T21:56:05.978Z,18.01
2022-10-21T21:58:32.503Z,18.00
2022-10-21T22:01:15.452Z,18.01
2022-10-21T22:03:42.634Z,18.02
2022-10-21T22:06:10.545Z,18.01
2022-10-21T22:08:39.959Z,18.01
2022-10-21T22:11:13.179Z,18.02
2022-10-21T22:13:40.442Z,18.04
2022-10-21T22:16:10.932Z,18.05
2022-10-21T22:18:37.652Z,18.05
2022-10-21T22:21:06.842Z,18.06
2022-10-21T22:23:33.688Z,18.07
2022-10-21T22:26:00.425Z,18.06
2022-10-21T22:28:27.314Z,18.06
2022-10-21T22:31:09.207Z,18.05
2022-10-21T22:33:36.402Z,18.05
2022-10-21T22:36:03.491Z,18.02
2022-10-21T22:38:29.990Z,18.01
2022-10-21T22:40:58.640Z,18.01
2022-10-21T22:43:26.223Z,18.00
2022-10-21T22:45:55.212Z,18.00
2022-10-21T22:48:27.844Z,17.98
2022-10-21T22:50:54.401Z,17.96
2022-10-21T22:53:21.563Z,17.95
2022-10-21T22:55:52.364Z,17.93
2022-10-21T22:58:21.282Z,17.93
2022-10-21T23:00:48.549Z,17.91
2022-10-21T23:03:16.396Z,17.90
2022-10-21T23:05:44.283Z,17.89
2022-10-21T23:08:11.185Z,17.86
2022-10-21T23:10:37.812Z,17.87
2022-10-21T23:13:05.976Z,17.87
2022-10-21T23:15:36.906Z,17.87
2022-10-21T23:18:04.204Z,17.85
2022-10-21T23:20:30.884Z,17.83
2022-10-21T23:22:57.418Z,17.82
2022-10-21T23:25:24.777Z,17.80
2022-10-21T23:27:51.358Z,17.79
2022-10-21T23:30:18.506Z,17.79
2022-10-21T23:32:49.704Z,17.78
2022-10-21T23:35:18.002Z,17.75
2022-10-21T23:37:44.678Z,17.74
2022-10-21T23:40:12.450Z,17.72
2022-10-21T23:42:42.751Z,17.72
2022-10-21T23:45:13.605Z,17.70
2022-10-21T23:47:40.365Z,17.68
2022-10-21T23:50:08.891Z,17.62
2022-10-21T23:52:36.251Z,17.56
2022-10-21T23:55:04.219Z,17.50
2022-10-21T23:57:30.783Z,17.46
2022-10-21T23:59:57.316Z,17.43
